Lone Pine, California
Current Conditions -  °F | °C
As of 10:56 AM on Friday 28 Nov 2014 (Local Time) from KBIH Reporting Station
Clear Clear  
Wind Chill: 53°   Ceiling: Unl
Heat Index: 53°   Visibility: 10mi
Dew Point: 16°   Wind: 3mph
Humidity: 23%   Direction: 180°S
Pressure: 30.06"   Gusts: NA
Location:  36.61°N, 118.06°W
Report Text: KBIH 281856Z AUTO 18003KT 10SM CLR 12/M09 A3006 RMK AO2 SLP173 T01171089
Loading
Personal Weather Stations






























Interactive Weather Map New forecast layout! Learn more

10-Day Weather Forecast

Advertisements
Track Severe Weather on mobile